Flight Briefing for CPX303

Departure Arrival
Guam International Airport (PGUM)
Click to view FAA NOTAMS
Daniel K Inouye International Airport (PHNL)
Click to view FAA NOTAMS
Departure Time Arrival Time
N/A N/A
Aircraft Distance
B767-300BDSF 3303nm
Departure METAR Arrival METAR
PGUM 200954Z 05005KT 10SM CLR 26/22 A2987 RMK AO2 SLP109 T02560217 PHNL 200953Z 00000KT 10SM FEW038 22/16 A3008 RMK AO2 SLP184 T02220161 402780206
Suggested Route
DEWSS A450 JIMOS A450 NGUEN A450 BRIUN NONNI BOOKE BOOKE8


View recent IFR Routes data
Notes



Charts and Procedures

Charts for PGUM
No chart available
Charts for PHNL
No chart available

Windy.com Weather Map